sensor_id;sensor_type;location;lat;lon;timestamp;P1;durP1;ratioP1;P2;durP2;ratioP2
2320;SDS011;15376;48.540;9.268;2024-02-15T00:02:14;3.90;;;3.50;;
2320;SDS011;15376;48.540;9.268;2024-02-15T00:04:39;3.90;;;3.27;;
2320;SDS011;15376;48.540;9.268;2024-02-15T00:07:05;4.27;;;3.77;;
2320;SDS011;15376;48.540;9.268;2024-02-15T00:09:31;3.63;;;3.30;;
2320;SDS011;15376;48.540;9.268;2024-02-15T00:11:56;3.50;;;3.20;;
2320;SDS011;15376;48.540;9.268;2024-02-15T00:14:22;3.53;;;3.33;;
2320;SDS011;15376;48.540;9.268;2024-02-15T00:16:47;4.10;;;3.70;;
2320;SDS011;15376;48.540;9.268;2024-02-15T00:19:13;7.70;;;4.77;;
2320;SDS011;15376;48.540;9.268;2024-02-15T00:21:45;4.27;;;3.67;;
2320;SDS011;15376;48.540;9.268;2024-02-15T00:24:11;6.20;;;3.67;;
2320;SDS011;15376;48.540;9.268;2024-02-15T00:26:36;3.50;;;3.20;;
2320;SDS011;15376;48.540;9.268;2024-02-15T00:29:02;4.00;;;3.47;;
2320;SDS011;15376;48.540;9.268;2024-02-15T00:31:27;3.60;;;2.97;;
2320;SDS011;15376;48.540;9.268;2024-02-15T00:33:52;3.63;;;3.33;;
2320;SDS011;15376;48.540;9.268;2024-02-15T00:36:19;3.13;;;2.83;;
2320;SDS011;15376;48.540;9.268;2024-02-15T00:38:44;6.63;;;3.53;;
2320;SDS011;15376;48.540;9.268;2024-02-15T00:41:10;3.33;;;3.03;;
2320;SDS011;15376;48.540;9.268;2024-02-15T00:43:35;4.03;;;2.80;;
2320;SDS011;15376;48.540;9.268;2024-02-15T00:46:01;4.07;;;2.80;;
2320;SDS011;15376;48.540;9.268;2024-02-15T00:48:27;4.10;;;3.00;;
2320;SDS011;15376;48.540;9.268;2024-02-15T00:50:53;2.50;;;2.30;;
2320;SDS011;15376;48.540;9.268;2024-02-15T00:53:19;3.90;;;2.60;;
2320;SDS011;15376;48.540;9.268;2024-02-15T00:55:45;3.07;;;2.73;;
2320;SDS011;15376;48.540;9.268;2024-02-15T00:58:10;4.73;;;3.00;;
2320;SDS011;15376;48.540;9.268;2024-02-15T01:00:36;5.93;;;2.70;;
2320;SDS011;15376;48.540;9.268;2024-02-15T01:03:03;3.50;;;3.20;;
2320;SDS011;15376;48.540;9.268;2024-02-15T01:05:29;6.23;;;3.30;;
2320;SDS011;15376;48.540;9.268;2024-02-15T01:07:55;3.17;;;2.87;;
2320;SDS011;15376;48.540;9.268;2024-02-15T01:10:21;3.60;;;3.20;;
2320;SDS011;15376;48.540;9.268;2024-02-15T01:12:48;3.27;;;2.97;;
2320;SDS011;15376;48.540;9.268;2024-02-15T01:15:14;2.90;;;2.70;;
2320;SDS011;15376;48.540;9.268;2024-02-15T01:17:43;2.93;;;2.63;;
2320;SDS011;15376;48.540;9.268;2024-02-15T01:20:09;4.03;;;2.57;;
2320;SDS011;15376;48.540;9.268;2024-02-15T01:22:35;3.53;;;2.77;;
2320;SDS011;15376;48.540;9.268;2024-02-15T01:25:00;3.17;;;2.97;;
2320;SDS011;15376;48.540;9.268;2024-02-15T01:27:26;2.87;;;2.63;;
2320;SDS011;15376;48.540;9.268;2024-02-15T01:29:54;3.13;;;2.90;;
2320;SDS011;15376;48.540;9.268;2024-02-15T01:32:20;3.37;;;3.10;;
2320;SDS011;15376;48.540;9.268;2024-02-15T01:34:46;2.67;;;2.47;;
2320;SDS011;15376;48.540;9.268;2024-02-15T01:37:11;4.17;;;2.80;;
2320;SDS011;15376;48.540;9.268;2024-02-15T01:39:36;3.70;;;3.20;;
2320;SDS011;15376;48.540;9.268;2024-02-15T01:42:02;3.33;;;3.03;;
2320;SDS011;15376;48.540;9.268;2024-02-15T01:44:28;3.67;;;2.57;;
2320;SDS011;15376;48.540;9.268;2024-02-15T01:46:53;3.17;;;2.60;;
2320;SDS011;15376;48.540;9.268;2024-02-15T01:49:20;3.53;;;2.23;;
2320;SDS011;15376;48.540;9.268;2024-02-15T01:51:47;5.20;;;2.30;;
2320;SDS011;15376;48.540;9.268;2024-02-15T01:54:15;2.67;;;2.47;;
2320;SDS011;15376;48.540;9.268;2024-02-15T01:56:42;6.90;;;2.53;;
2320;SDS011;15376;48.540;9.268;2024-02-15T01:59:08;3.77;;;2.70;;
2320;SDS011;15376;48.540;9.268;2024-02-15T02:01:35;3.70;;;3.33;;
2320;SDS011;15376;48.540;9.268;2024-02-15T02:04:00;6.00;;;3.43;;
2320;SDS011;15376;48.540;9.268;2024-02-15T02:06:27;3.67;;;3.37;;
2320;SDS011;15376;48.540;9.268;2024-02-15T02:08:53;3.10;;;2.80;;
2320;SDS011;15376;48.540;9.268;2024-02-15T02:11:21;5.40;;;3.50;;
2320;SDS011;15376;48.540;9.268;2024-02-15T02:13:47;2.80;;;2.60;;
2320;SDS011;15376;48.540;9.268;2024-02-15T02:18:54;2.70;;;2.50;;
2320;SDS011;15376;48.540;9.268;2024-02-15T02:21:21;2.77;;;2.53;;
2320;SDS011;15376;48.540;9.268;2024-02-15T02:23:51;5.27;;;2.90;;
2320;SDS011;15376;48.540;9.268;2024-02-15T02:26:19;3.13;;;2.80;;
2320;SDS011;15376;48.540;9.268;2024-02-15T02:28:46;4.83;;;2.80;;
2320;SDS011;15376;48.540;9.268;2024-02-15T02:31:12;3.17;;;2.97;;
2320;SDS011;15376;48.540;9.268;2024-02-15T02:33:37;3.60;;;2.90;;
2320;SDS011;15376;48.540;9.268;2024-02-15T02:36:03;3.10;;;2.90;;
2320;SDS011;15376;48.540;9.268;2024-02-15T02:38:28;4.17;;;3.20;;
2320;SDS011;15376;48.540;9.268;2024-02-15T02:40:54;3.80;;;2.83;;
2320;SDS011;15376;48.540;9.268;2024-02-15T02:43:19;2.70;;;2.50;;
2320;SDS011;15376;48.540;9.268;2024-02-15T02:45:44;3.10;;;2.90;;
2320;SDS011;15376;48.540;9.268;2024-02-15T02:48:13;2.73;;;2.53;;
2320;SDS011;15376;48.540;9.268;2024-02-15T02:50:38;3.03;;;2.73;;
2320;SDS011;15376;48.540;9.268;2024-02-15T02:53:03;6.50;;;3.43;;
2320;SDS011;15376;48.540;9.268;2024-02-15T02:55:30;3.33;;;2.40;;
2320;SDS011;15376;48.540;9.268;2024-02-15T02:57:55;3.67;;;2.40;;
2320;SDS011;15376;48.540;9.268;2024-02-15T03:00:21;4.53;;;3.17;;
2320;SDS011;15376;48.540;9.268;2024-02-15T03:02:47;2.60;;;2.40;;
2320;SDS011;15376;48.540;9.268;2024-02-15T03:05:13;2.60;;;2.40;;
2320;SDS011;15376;48.540;9.268;2024-02-15T03:07:39;4.30;;;2.80;;
2320;SDS011;15376;48.540;9.268;2024-02-15T03:10:09;3.50;;;3.20;;
2320;SDS011;15376;48.540;9.268;2024-02-15T03:12:38;3.43;;;3.13;;
2320;SDS011;15376;48.540;9.268;2024-02-15T03:15:04;7.73;;;3.30;;
2320;SDS011;15376;48.540;9.268;2024-02-15T03:17:42;2.83;;;2.60;;
2320;SDS011;15376;48.540;9.268;2024-02-15T03:20:08;4.77;;;3.43;;
2320;SDS011;15376;48.540;9.268;2024-02-15T03:22:50;5.07;;;3.63;;
2320;SDS011;15376;48.540;9.268;2024-02-15T03:25:15;4.33;;;2.50;;
2320;SDS011;15376;48.540;9.268;2024-02-15T03:27:40;4.33;;;4.00;;
2320;SDS011;15376;48.540;9.268;2024-02-15T03:30:06;4.07;;;3.67;;
2320;SDS011;15376;48.540;9.268;2024-02-15T03:32:31;3.50;;;3.20;;
2320;SDS011;15376;48.540;9.268;2024-02-15T03:34:57;5.30;;;3.47;;
2320;SDS011;15376;48.540;9.268;2024-02-15T03:37:23;3.30;;;3.00;;
2320;SDS011;15376;48.540;9.268;2024-02-15T03:39:49;3.50;;;3.20;;
2320;SDS011;15376;48.540;9.268;2024-02-15T03:42:14;5.20;;;3.13;;
2320;SDS011;15376;48.540;9.268;2024-02-15T03:44:40;7.10;;;3.10;;
2320;SDS011;15376;48.540;9.268;2024-02-15T03:47:06;3.53;;;3.23;;
2320;SDS011;15376;48.540;9.268;2024-02-15T03:49:32;3.10;;;2.80;;
2320;SDS011;15376;48.540;9.268;2024-02-15T03:51:57;4.60;;;3.20;;
2320;SDS011;15376;48.540;9.268;2024-02-15T03:54:24;2.90;;;2.60;;
2320;SDS011;15376;48.540;9.268;2024-02-15T03:56:50;5.37;;;2.73;;
2320;SDS011;15376;48.540;9.268;2024-02-15T03:59:20;3.03;;;2.77;;
2320;SDS011;15376;48.540;9.268;2024-02-15T04:01:55;4.07;;;2.23;;
2320;SDS011;15376;48.540;9.268;2024-02-15T04:04:22;2.47;;;2.23;;
2320;SDS011;15376;48.540;9.268;2024-02-15T04:06:48;2.27;;;1.70;;
2320;SDS011;15376;48.540;9.268;2024-02-15T04:09:17;3.03;;;2.73;;
2320;SDS011;15376;48.540;9.268;2024-02-15T04:11:43;2.50;;;2.30;;
2320;SDS011;15376;48.540;9.268;2024-02-15T04:14:15;3.80;;;2.83;;
2320;SDS011;15376;48.540;9.268;2024-02-15T04:16:40;3.33;;;2.77;;
2320;SDS011;15376;48.540;9.268;2024-02-15T04:19:06;3.20;;;2.90;;
2320;SDS011;15376;48.540;9.268;2024-02-15T04:21:31;3.10;;;2.73;;
2320;SDS011;15376;48.540;9.268;2024-02-15T04:23:56;4.00;;;3.50;;
2320;SDS011;15376;48.540;9.268;2024-02-15T04:26:22;3.57;;;3.27;;
2320;SDS011;15376;48.540;9.268;2024-02-15T04:28:51;3.40;;;3.00;;
2320;SDS011;15376;48.540;9.268;2024-02-15T04:31:18;4.90;;;3.23;;
2320;SDS011;15376;48.540;9.268;2024-02-15T04:33:43;5.10;;;3.57;;
2320;SDS011;15376;48.540;9.268;2024-02-15T04:36:08;4.63;;;3.20;;
2320;SDS011;15376;48.540;9.268;2024-02-15T04:38:34;3.97;;;3.27;;
2320;SDS011;15376;48.540;9.268;2024-02-15T04:41:02;3.20;;;2.90;;
2320;SDS011;15376;48.540;9.268;2024-02-15T04:43:30;3.63;;;3.33;;
2320;SDS011;15376;48.540;9.268;2024-02-15T04:45:58;6.67;;;3.70;;
2320;SDS011;15376;48.540;9.268;2024-02-15T04:48:24;3.70;;;3.43;;
2320;SDS011;15376;48.540;9.268;2024-02-15T04:50:49;2.70;;;2.50;;
2320;SDS011;15376;48.540;9.268;2024-02-15T04:53:16;3.83;;;3.40;;
2320;SDS011;15376;48.540;9.268;2024-02-15T04:55:42;5.30;;;3.07;;
2320;SDS011;15376;48.540;9.268;2024-02-15T04:58:07;4.40;;;3.30;;
2320;SDS011;15376;48.540;9.268;2024-02-15T05:00:35;3.63;;;3.20;;
2320;SDS011;15376;48.540;9.268;2024-02-15T05:03:01;6.33;;;3.80;;
2320;SDS011;15376;48.540;9.268;2024-02-15T05:05:26;3.33;;;2.93;;
2320;SDS011;15376;48.540;9.268;2024-02-15T05:07:54;3.57;;;3.00;;
2320;SDS011;15376;48.540;9.268;2024-02-15T05:10:19;4.57;;;3.60;;
2320;SDS011;15376;48.540;9.268;2024-02-15T05:12:45;3.10;;;2.77;;
2320;SDS011;15376;48.540;9.268;2024-02-15T05:15:12;5.33;;;2.90;;
2320;SDS011;15376;48.540;9.268;2024-02-15T05:17:42;8.73;;;2.87;;
2320;SDS011;15376;48.540;9.268;2024-02-15T05:20:08;5.17;;;3.10;;
2320;SDS011;15376;48.540;9.268;2024-02-15T05:22:38;4.50;;;2.90;;
2320;SDS011;15376;48.540;9.268;2024-02-15T05:25:08;4.17;;;3.60;;
2320;SDS011;15376;48.540;9.268;2024-02-15T05:27:34;5.40;;;2.93;;
2320;SDS011;15376;48.540;9.268;2024-02-15T05:30:01;4.40;;;3.40;;
2320;SDS011;15376;48.540;9.268;2024-02-15T05:32:31;3.80;;;3.50;;
2320;SDS011;15376;48.540;9.268;2024-02-15T05:34:57;5.70;;;3.30;;
2320;SDS011;15376;48.540;9.268;2024-02-15T05:37:22;2.80;;;2.60;;
2320;SDS011;15376;48.540;9.268;2024-02-15T05:39:48;4.37;;;2.93;;
2320;SDS011;15376;48.540;9.268;2024-02-15T05:42:18;5.17;;;3.70;;
2320;SDS011;15376;48.540;9.268;2024-02-15T05:44:44;5.47;;;4.87;;
2320;SDS011;15376;48.540;9.268;2024-02-15T05:47:10;4.60;;;3.27;;
2320;SDS011;15376;48.540;9.268;2024-02-15T05:49:36;5.17;;;3.30;;
2320;SDS011;15376;48.540;9.268;2024-02-15T05:52:02;5.57;;;3.40;;
2320;SDS011;15376;48.540;9.268;2024-02-15T05:54:27;4.90;;;3.70;;
2320;SDS011;15376;48.540;9.268;2024-02-15T05:56:53;4.23;;;3.10;;
2320;SDS011;15376;48.540;9.268;2024-02-15T05:59:20;3.93;;;3.53;;
2320;SDS011;15376;48.540;9.268;2024-02-15T06:01:46;4.13;;;3.73;;
2320;SDS011;15376;48.540;9.268;2024-02-15T06:04:13;3.83;;;3.53;;
2320;SDS011;15376;48.540;9.268;2024-02-15T06:06:42;4.10;;;3.70;;
2320;SDS011;15376;48.540;9.268;2024-02-15T06:09:08;4.40;;;4.00;;
2320;SDS011;15376;48.540;9.268;2024-02-15T06:11:33;4.20;;;3.80;;
2320;SDS011;15376;48.540;9.268;2024-02-15T06:13:58;5.63;;;3.30;;
2320;SDS011;15376;48.540;9.268;2024-02-15T06:16:24;8.00;;;3.50;;
2320;SDS011;15376;48.540;9.268;2024-02-15T06:18:50;7.20;;;3.40;;
2320;SDS011;15376;48.540;9.268;2024-02-15T06:21:15;3.80;;;3.20;;
2320;SDS011;15376;48.540;9.268;2024-02-15T06:23:41;4.47;;;4.07;;
2320;SDS011;15376;48.540;9.268;2024-02-15T06:26:06;4.57;;;4.13;;
2320;SDS011;15376;48.540;9.268;2024-02-15T06:28:32;6.07;;;4.27;;
2320;SDS011;15376;48.540;9.268;2024-02-15T06:31:16;3.50;;;3.20;;
2320;SDS011;15376;48.540;9.268;2024-02-15T06:34:00;3.83;;;3.53;;
2320;SDS011;15376;48.540;9.268;2024-02-15T06:36:48;5.97;;;4.17;;
2320;SDS011;15376;48.540;9.268;2024-02-15T06:39:33;5.63;;;4.23;;
2320;SDS011;15376;48.540;9.268;2024-02-15T06:42:08;7.03;;;5.20;;
2320;SDS011;15376;48.540;9.268;2024-02-15T06:44:35;4.57;;;4.17;;
2320;SDS011;15376;48.540;9.268;2024-02-15T06:47:00;4.50;;;3.90;;
2320;SDS011;15376;48.540;9.268;2024-02-15T06:49:26;3.23;;;2.93;;
2320;SDS011;15376;48.540;9.268;2024-02-15T06:51:51;4.03;;;3.63;;
2320;SDS011;15376;48.540;9.268;2024-02-15T06:54:17;3.53;;;3.27;;
2320;SDS011;15376;48.540;9.268;2024-02-15T06:56:43;6.47;;;5.10;;
2320;SDS011;15376;48.540;9.268;2024-02-15T06:59:11;3.87;;;3.47;;
2320;SDS011;15376;48.540;9.268;2024-02-15T07:01:40;4.77;;;3.87;;
2320;SDS011;15376;48.540;9.268;2024-02-15T07:04:07;3.90;;;3.60;;
2320;SDS011;15376;48.540;9.268;2024-02-15T07:06:33;4.67;;;3.33;;
2320;SDS011;15376;48.540;9.268;2024-02-15T07:09:00;7.23;;;3.10;;
2320;SDS011;15376;48.540;9.268;2024-02-15T07:11:25;6.23;;;4.33;;
2320;SDS011;15376;48.540;9.268;2024-02-15T07:13:50;7.10;;;4.50;;
2320;SDS011;15376;48.540;9.268;2024-02-15T07:16:19;6.30;;;4.00;;
2320;SDS011;15376;48.540;9.268;2024-02-15T07:18:45;6.10;;;5.10;;
2320;SDS011;15376;48.540;9.268;2024-02-15T07:21:11;7.90;;;4.60;;
2320;SDS011;15376;48.540;9.268;2024-02-15T07:23:39;8.90;;;4.93;;
2320;SDS011;15376;48.540;9.268;2024-02-15T07:26:06;7.10;;;4.50;;
2320;SDS011;15376;48.540;9.268;2024-02-15T07:28:32;6.50;;;4.30;;
2320;SDS011;15376;48.540;9.268;2024-02-15T07:30:57;6.57;;;4.37;;
2320;SDS011;15376;48.540;9.268;2024-02-15T07:33:22;4.50;;;4.03;;
2320;SDS011;15376;48.540;9.268;2024-02-15T07:35:48;4.50;;;3.93;;
2320;SDS011;15376;48.540;9.268;2024-02-15T07:38:18;7.37;;;3.70;;
2320;SDS011;15376;48.540;9.268;2024-02-15T07:40:44;4.20;;;3.67;;
2320;SDS011;15376;48.540;9.268;2024-02-15T07:43:09;5.17;;;3.97;;
2320;SDS011;15376;48.540;9.268;2024-02-15T07:45:35;8.13;;;4.00;;
2320;SDS011;15376;48.540;9.268;2024-02-15T07:48:02;9.60;;;4.23;;
2320;SDS011;15376;48.540;9.268;2024-02-15T07:50:32;4.70;;;3.50;;
2320;SDS011;15376;48.540;9.268;2024-02-15T07:52:57;4.83;;;4.30;;
2320;SDS011;15376;48.540;9.268;2024-02-15T07:55:23;6.70;;;4.30;;
2320;SDS011;15376;48.540;9.268;2024-02-15T07:57:49;3.90;;;3.60;;
2320;SDS011;15376;48.540;9.268;2024-02-15T08:00:15;7.63;;;3.63;;
2320;SDS011;15376;48.540;9.268;2024-02-15T08:02:41;5.77;;;4.30;;
2320;SDS011;15376;48.540;9.268;2024-02-15T08:05:08;5.37;;;4.20;;
2320;SDS011;15376;48.540;9.268;2024-02-15T08:07:43;7.10;;;3.80;;
2320;SDS011;15376;48.540;9.268;2024-02-15T08:10:10;6.43;;;3.87;;
2320;SDS011;15376;48.540;9.268;2024-02-15T08:12:39;5.90;;;4.00;;
2320;SDS011;15376;48.540;9.268;2024-02-15T08:15:09;6.50;;;4.03;;
2320;SDS011;15376;48.540;9.268;2024-02-15T08:17:41;11.53;;;4.63;;
2320;SDS011;15376;48.540;9.268;2024-02-15T08:20:08;4.07;;;3.50;;
2320;SDS011;15376;48.540;9.268;2024-02-15T08:22:35;7.93;;;4.00;;
2320;SDS011;15376;48.540;9.268;2024-02-15T08:25:07;3.80;;;3.50;;
2320;SDS011;15376;48.540;9.268;2024-02-15T08:27:41;4.33;;;3.43;;
2320;SDS011;15376;48.540;9.268;2024-02-15T08:30:09;4.03;;;3.50;;
2320;SDS011;15376;48.540;9.268;2024-02-15T08:32:36;4.20;;;3.47;;
2320;SDS011;15376;48.540;9.268;2024-02-15T08:35:02;4.30;;;3.83;;
2320;SDS011;15376;48.540;9.268;2024-02-15T08:37:29;3.20;;;2.90;;
2320;SDS011;15376;48.540;9.268;2024-02-15T08:39:55;3.70;;;2.97;;
2320;SDS011;15376;48.540;9.268;2024-02-15T08:42:22;4.47;;;3.60;;
2320;SDS011;15376;48.540;9.268;2024-02-15T08:44:50;4.40;;;3.47;;
2320;SDS011;15376;48.540;9.268;2024-02-15T08:47:16;3.63;;;3.27;;
2320;SDS011;15376;48.540;9.268;2024-02-15T08:49:41;3.10;;;2.90;;
2320;SDS011;15376;48.540;9.268;2024-02-15T08:52:07;3.50;;;3.20;;
2320;SDS011;15376;48.540;9.268;2024-02-15T08:54:35;6.63;;;3.30;;
2320;SDS011;15376;48.540;9.268;2024-02-15T08:57:03;5.13;;;4.00;;
2320;SDS011;15376;48.540;9.268;2024-02-15T08:59:29;5.20;;;3.10;;
2320;SDS011;15376;48.540;9.268;2024-02-15T09:01:55;3.30;;;2.77;;
2320;SDS011;15376;48.540;9.268;2024-02-15T09:04:21;3.63;;;3.33;;
2320;SDS011;15376;48.540;9.268;2024-02-15T09:06:49;3.63;;;3.00;;
2320;SDS011;15376;48.540;9.268;2024-02-15T09:09:14;6.23;;;3.20;;
2320;SDS011;15376;48.540;9.268;2024-02-15T09:11:40;2.67;;;2.33;;
2320;SDS011;15376;48.540;9.268;2024-02-15T09:14:05;3.83;;;2.50;;
2320;SDS011;15376;48.540;9.268;2024-02-15T09:16:31;3.20;;;2.90;;
2320;SDS011;15376;48.540;9.268;2024-02-15T09:18:57;6.93;;;2.80;;
2320;SDS011;15376;48.540;9.268;2024-02-15T09:21:25;4.90;;;2.90;;
2320;SDS011;15376;48.540;9.268;2024-02-15T09:23:53;5.37;;;2.80;;
2320;SDS011;15376;48.540;9.268;2024-02-15T09:26:18;3.43;;;2.50;;
2320;SDS011;15376;48.540;9.268;2024-02-15T09:28:44;6.37;;;2.80;;
2320;SDS011;15376;48.540;9.268;2024-02-15T09:31:12;3.30;;;2.27;;
2320;SDS011;15376;48.540;9.268;2024-02-15T09:33:38;3.70;;;2.80;;
2320;SDS011;15376;48.540;9.268;2024-02-15T09:36:04;6.53;;;3.70;;
2320;SDS011;15376;48.540;9.268;2024-02-15T09:38:30;4.07;;;3.60;;
2320;SDS011;15376;48.540;9.268;2024-02-15T09:40:55;7.93;;;3.87;;
2320;SDS011;15376;48.540;9.268;2024-02-15T09:43:20;4.67;;;3.47;;
2320;SDS011;15376;48.540;9.268;2024-02-15T09:45:46;4.47;;;3.37;;
2320;SDS011;15376;48.540;9.268;2024-02-15T09:48:13;10.07;;;3.97;;
2320;SDS011;15376;48.540;9.268;2024-02-15T09:50:42;5.50;;;3.73;;
2320;SDS011;15376;48.540;9.268;2024-02-15T09:53:12;4.97;;;3.70;;
2320;SDS011;15376;48.540;9.268;2024-02-15T09:55:39;5.83;;;3.70;;
2320;SDS011;15376;48.540;9.268;2024-02-15T09:58:06;4.07;;;3.67;;
2320;SDS011;15376;48.540;9.268;2024-02-15T10:00:34;4.40;;;3.30;;
2320;SDS011;15376;48.540;9.268;2024-02-15T10:03:00;5.50;;;3.53;;
2320;SDS011;15376;48.540;9.268;2024-02-15T10:05:27;4.30;;;3.03;;
2320;SDS011;15376;48.540;9.268;2024-02-15T10:07:53;5.17;;;3.77;;
2320;SDS011;15376;48.540;9.268;2024-02-15T10:12:45;3.10;;;2.80;;
2320;SDS011;15376;48.540;9.268;2024-02-15T10:15:34;3.93;;;2.90;;
2320;SDS011;15376;48.540;9.268;2024-02-15T10:18:00;5.33;;;3.00;;
2320;SDS011;15376;48.540;9.268;2024-02-15T10:20:27;4.73;;;3.33;;
2320;SDS011;15376;48.540;9.268;2024-02-15T10:22:53;4.50;;;3.10;;
2320;SDS011;15376;48.540;9.268;2024-02-15T10:25:33;3.80;;;3.03;;
2320;SDS011;15376;48.540;9.268;2024-02-15T10:28:03;3.63;;;3.07;;
2320;SDS011;15376;48.540;9.268;2024-02-15T10:30:36;6.13;;;3.33;;
2320;SDS011;15376;48.540;9.268;2024-02-15T10:33:03;4.60;;;2.70;;
2320;SDS011;15376;48.540;9.268;2024-02-15T10:35:29;3.40;;;2.90;;
2320;SDS011;15376;48.540;9.268;2024-02-15T10:38:06;3.90;;;2.70;;
2320;SDS011;15376;48.540;9.268;2024-02-15T10:40:33;5.30;;;3.60;;
2320;SDS011;15376;48.540;9.268;2024-02-15T10:42:58;3.73;;;2.50;;
2320;SDS011;15376;48.540;9.268;2024-02-15T10:45:24;5.73;;;3.13;;
2320;SDS011;15376;48.540;9.268;2024-02-15T10:47:50;3.97;;;2.63;;
2320;SDS011;15376;48.540;9.268;2024-02-15T10:50:17;6.03;;;2.93;;
2320;SDS011;15376;48.540;9.268;2024-02-15T10:52:44;3.60;;;3.20;;
2320;SDS011;15376;48.540;9.268;2024-02-15T10:55:29;2.63;;;2.13;;
2320;SDS011;15376;48.540;9.268;2024-02-15T10:58:06;6.53;;;2.60;;
2320;SDS011;15376;48.540;9.268;2024-02-15T11:00:33;3.03;;;2.40;;
2320;SDS011;15376;48.540;9.268;2024-02-15T11:03:02;5.10;;;3.10;;
2320;SDS011;15376;48.540;9.268;2024-02-15T11:05:33;2.40;;;2.20;;
2320;SDS011;15376;48.540;9.268;2024-02-15T11:08:09;5.60;;;2.60;;
2320;SDS011;15376;48.540;9.268;2024-02-15T11:10:35;3.87;;;2.40;;
2320;SDS011;15376;48.540;9.268;2024-02-15T11:13:02;2.80;;;2.10;;
2320;SDS011;15376;48.540;9.268;2024-02-15T11:15:46;3.20;;;2.20;;
2320;SDS011;15376;48.540;9.268;2024-02-15T11:21:16;3.10;;;1.80;;
2320;SDS011;15376;48.540;9.268;2024-02-15T11:26:53;5.50;;;2.23;;
2320;SDS011;15376;48.540;9.268;2024-02-15T11:35:21;4.40;;;2.47;;
2320;SDS011;15376;48.540;9.268;2024-02-15T11:40:13;4.80;;;2.00;;
2320;SDS011;15376;48.540;9.268;2024-02-15T11:42:39;3.90;;;2.30;;
2320;SDS011;15376;48.540;9.268;2024-02-15T11:45:07;2.77;;;1.90;;
2320;SDS011;15376;48.540;9.268;2024-02-15T11:47:35;3.83;;;1.90;;
2320;SDS011;15376;48.540;9.268;2024-02-15T11:50:03;2.73;;;2.00;;
2320;SDS011;15376;48.540;9.268;2024-02-15T11:52:33;5.63;;;2.13;;
2320;SDS011;15376;48.540;9.268;2024-02-15T11:55:05;2.37;;;1.77;;
2320;SDS011;15376;48.540;9.268;2024-02-15T11:57:35;2.23;;;2.10;;
2320;SDS011;15376;48.540;9.268;2024-02-15T12:00:04;3.17;;;2.10;;
2320;SDS011;15376;48.540;9.268;2024-02-15T12:02:49;3.03;;;2.10;;
2320;SDS011;15376;48.540;9.268;2024-02-15T12:05:32;2.83;;;1.93;;
2320;SDS011;15376;48.540;9.268;2024-02-15T12:08:16;3.83;;;1.90;;
2320;SDS011;15376;48.540;9.268;2024-02-15T12:11:00;3.23;;;1.83;;
2320;SDS011;15376;48.540;9.268;2024-02-15T12:13:51;3.07;;;2.10;;
2320;SDS011;15376;48.540;9.268;2024-02-15T12:16:35;5.00;;;2.67;;
2320;SDS011;15376;48.540;9.268;2024-02-15T12:19:20;3.03;;;1.90;;
2320;SDS011;15376;48.540;9.268;2024-02-15T12:21:46;2.70;;;2.10;;
2320;SDS011;15376;48.540;9.268;2024-02-15T12:24:13;2.23;;;2.00;;
2320;SDS011;15376;48.540;9.268;2024-02-15T12:26:41;3.13;;;2.10;;
2320;SDS011;15376;48.540;9.268;2024-02-15T12:29:06;3.40;;;1.93;;
2320;SDS011;15376;48.540;9.268;2024-02-15T12:31:33;3.07;;;2.20;;
2320;SDS011;15376;48.540;9.268;2024-02-15T12:34:03;2.13;;;1.93;;
2320;SDS011;15376;48.540;9.268;2024-02-15T12:36:31;2.90;;;2.17;;
2320;SDS011;15376;48.540;9.268;2024-02-15T12:39:04;2.23;;;1.93;;
2320;SDS011;15376;48.540;9.268;2024-02-15T12:41:39;3.57;;;2.10;;
2320;SDS011;15376;48.540;9.268;2024-02-15T12:44:06;5.90;;;2.43;;
2320;SDS011;15376;48.540;9.268;2024-02-15T12:46:33;2.33;;;2.07;;
2320;SDS011;15376;48.540;9.268;2024-02-15T12:51:53;4.23;;;1.83;;
2320;SDS011;15376;48.540;9.268;2024-02-15T12:54:38;2.70;;;2.00;;
2320;SDS011;15376;48.540;9.268;2024-02-15T12:57:08;3.23;;;2.10;;
2320;SDS011;15376;48.540;9.268;2024-02-15T12:59:35;3.80;;;2.13;;
2320;SDS011;15376;48.540;9.268;2024-02-15T13:02:02;2.80;;;2.00;;
2320;SDS011;15376;48.540;9.268;2024-02-15T13:04:28;3.90;;;2.10;;
2320;SDS011;15376;48.540;9.268;2024-02-15T13:06:53;2.37;;;2.07;;
2320;SDS011;15376;48.540;9.268;2024-02-15T13:09:19;4.10;;;1.90;;
2320;SDS011;15376;48.540;9.268;2024-02-15T13:11:47;2.93;;;2.03;;
2320;SDS011;15376;48.540;9.268;2024-02-15T13:14:12;6.03;;;2.00;;
2320;SDS011;15376;48.540;9.268;2024-02-15T13:16:38;3.13;;;1.80;;
2320;SDS011;15376;48.540;9.268;2024-02-15T13:19:03;2.30;;;2.10;;
2320;SDS011;15376;48.540;9.268;2024-02-15T13:21:31;4.47;;;2.60;;
2320;SDS011;15376;48.540;9.268;2024-02-15T13:23:59;5.23;;;2.27;;
2320;SDS011;15376;48.540;9.268;2024-02-15T13:26:24;3.40;;;2.07;;
2320;SDS011;15376;48.540;9.268;2024-02-15T13:28:51;3.67;;;2.20;;
2320;SDS011;15376;48.540;9.268;2024-02-15T13:31:17;3.00;;;2.13;;
2320;SDS011;15376;48.540;9.268;2024-02-15T13:33:42;2.30;;;2.10;;
2320;SDS011;15376;48.540;9.268;2024-02-15T13:36:07;5.33;;;2.57;;
2320;SDS011;15376;48.540;9.268;2024-02-15T13:38:36;3.70;;;2.10;;
2320;SDS011;15376;48.540;9.268;2024-02-15T13:41:02;4.80;;;2.43;;
2320;SDS011;15376;48.540;9.268;2024-02-15T13:43:28;3.97;;;2.00;;
2320;SDS011;15376;48.540;9.268;2024-02-15T13:45:54;3.30;;;1.90;;
2320;SDS011;15376;48.540;9.268;2024-02-15T13:48:19;4.20;;;1.60;;
2320;SDS011;15376;48.540;9.268;2024-02-15T13:50:44;2.17;;;1.97;;
2320;SDS011;15376;48.540;9.268;2024-02-15T13:53:09;4.90;;;2.03;;
2320;SDS011;15376;48.540;9.268;2024-02-15T13:55:35;3.40;;;1.73;;
2320;SDS011;15376;48.540;9.268;2024-02-15T13:58:02;6.90;;;2.70;;
2320;SDS011;15376;48.540;9.268;2024-02-15T14:00:27;4.13;;;2.00;;
2320;SDS011;15376;48.540;9.268;2024-02-15T14:02:58;3.30;;;1.90;;
2320;SDS011;15376;48.540;9.268;2024-02-15T14:05:25;7.60;;;2.20;;
2320;SDS011;15376;48.540;9.268;2024-02-15T14:07:56;3.03;;;2.13;;
2320;SDS011;15376;48.540;9.268;2024-02-15T14:10:27;2.60;;;1.90;;
2320;SDS011;15376;48.540;9.268;2024-02-15T14:12:56;2.40;;;2.20;;
2320;SDS011;15376;48.540;9.268;2024-02-15T14:15:26;3.00;;;1.93;;
2320;SDS011;15376;48.540;9.268;2024-02-15T14:17:52;6.50;;;2.20;;
2320;SDS011;15376;48.540;9.268;2024-02-15T14:20:18;2.90;;;1.87;;
2320;SDS011;15376;48.540;9.268;2024-02-15T14:22:47;5.43;;;2.10;;
2320;SDS011;15376;48.540;9.268;2024-02-15T14:25:23;10.43;;;2.73;;
2320;SDS011;15376;48.540;9.268;2024-02-15T14:28:00;2.40;;;1.77;;
2320;SDS011;15376;48.540;9.268;2024-02-15T14:30:25;2.70;;;2.00;;
2320;SDS011;15376;48.540;9.268;2024-02-15T14:33:09;2.67;;;2.20;;
2320;SDS011;15376;48.540;9.268;2024-02-15T14:35:39;5.33;;;2.67;;
2320;SDS011;15376;48.540;9.268;2024-02-15T14:38:05;3.43;;;2.60;;
2320;SDS011;15376;48.540;9.268;2024-02-15T14:40:36;5.20;;;2.23;;
2320;SDS011;15376;48.540;9.268;2024-02-15T14:43:06;2.37;;;1.87;;
2320;SDS011;15376;48.540;9.268;2024-02-15T14:45:33;3.03;;;2.17;;
2320;SDS011;15376;48.540;9.268;2024-02-15T14:47:59;4.50;;;2.50;;
2320;SDS011;15376;48.540;9.268;2024-02-15T14:50:25;3.67;;;2.60;;
2320;SDS011;15376;48.540;9.268;2024-02-15T14:52:51;3.20;;;1.90;;
2320;SDS011;15376;48.540;9.268;2024-02-15T14:55:18;4.60;;;1.97;;
2320;SDS011;15376;48.540;9.268;2024-02-15T14:57:47;2.80;;;2.37;;
2320;SDS011;15376;48.540;9.268;2024-02-15T15:00:13;4.70;;;3.10;;
2320;SDS011;15376;48.540;9.268;2024-02-15T15:02:43;2.90;;;2.50;;
2320;SDS011;15376;48.540;9.268;2024-02-15T15:05:11;4.83;;;2.50;;
2320;SDS011;15376;48.540;9.268;2024-02-15T15:07:55;2.87;;;2.23;;
2320;SDS011;15376;48.540;9.268;2024-02-15T15:10:39;2.50;;;2.30;;
2320;SDS011;15376;48.540;9.268;2024-02-15T15:13:23;2.50;;;2.30;;
2320;SDS011;15376;48.540;9.268;2024-02-15T15:15:49;6.60;;;2.47;;
2320;SDS011;15376;48.540;9.268;2024-02-15T15:18:14;2.87;;;2.57;;
2320;SDS011;15376;48.540;9.268;2024-02-15T15:20:40;2.57;;;2.27;;
2320;SDS011;15376;48.540;9.268;2024-02-15T15:23:06;4.70;;;2.30;;
2320;SDS011;15376;48.540;9.268;2024-02-15T15:25:32;3.30;;;2.30;;
2320;SDS011;15376;48.540;9.268;2024-02-15T15:27:58;2.90;;;2.53;;